createdAt,value
2023-03-02T00:00:17.085Z,6.42
2023-03-02T00:02:48.144Z,6.47
2023-03-02T00:05:17.981Z,6.38
2023-03-02T00:07:48.697Z,6.44
2023-03-02T00:10:20.374Z,6.48
2023-03-02T00:12:50.637Z,6.64
2023-03-02T00:15:21.243Z,6.32
2023-03-02T00:17:51.864Z,6.08
2023-03-02T00:20:22.482Z,6.00
2023-03-02T00:22:52.689Z,6.32
2023-03-02T00:25:24.559Z,6.65
2023-03-02T00:27:55.247Z,6.55
2023-03-02T00:30:26.076Z,6.14
2023-03-02T00:32:58.695Z,6.08
2023-03-02T00:35:29.456Z,6.36
2023-03-02T00:37:59.897Z,6.24
2023-03-02T00:40:32.220Z,5.94
2023-03-02T00:43:02.105Z,6.30
2023-03-02T00:45:32.592Z,6.46
2023-03-02T00:48:03.365Z,6.63
2023-03-02T00:50:33.948Z,6.06
2023-03-02T00:53:04.170Z,6.42
2023-03-02T00:55:36.223Z,6.39
2023-03-02T00:58:07.154Z,6.55
2023-03-02T01:00:38.722Z,6.37
2023-03-02T01:03:09.105Z,6.58
2023-03-02T01:05:40.415Z,6.18
2023-03-02T01:08:11.034Z,6.57
2023-03-02T01:10:43.764Z,6.39
2023-03-02T01:13:14.301Z,6.19
2023-03-02T01:15:44.806Z,6.17
2023-03-02T01:18:16.177Z,6.22
2023-03-02T01:20:46.996Z,6.31
2023-03-02T01:23:18.318Z,6.33
2023-03-02T01:25:49.822Z,6.36
2023-03-02T01:28:20.235Z,6.56
2023-03-02T01:30:50.442Z,6.39
2023-03-02T01:33:21.569Z,6.29
2023-03-02T01:35:51.509Z,6.20
2023-03-02T01:38:22.213Z,6.22
2023-03-02T01:40:55.064Z,6.51
2023-03-02T01:43:24.808Z,6.45
2023-03-02T01:45:57.891Z,6.64
2023-03-02T01:48:32.043Z,6.42
2023-03-02T01:51:03.527Z,6.38
2023-03-02T01:53:35.207Z,6.34
2023-03-02T01:56:09.257Z,6.37
2023-03-02T01:58:39.571Z,6.22
2023-03-02T02:01:15.991Z,6.38
2023-03-02T02:03:48.570Z,6.41
2023-03-02T02:06:23.422Z,6.40
2023-03-02T02:08:56.342Z,6.52
2023-03-02T02:11:29.170Z,6.34
2023-03-02T02:14:01.124Z,6.39
2023-03-02T02:16:33.819Z,6.43
2023-03-02T02:19:05.064Z,6.35
2023-03-02T02:21:35.429Z,6.11
2023-03-02T02:24:10.733Z,6.35
2023-03-02T02:26:46.336Z,6.66
2023-03-02T02:29:23.185Z,6.52
2023-03-02T02:31:57.033Z,6.53
2023-03-02T02:34:31.581Z,6.38
2023-03-02T02:37:06.632Z,6.39
2023-03-02T02:39:39.473Z,6.31
2023-03-02T02:42:16.100Z,6.34
2023-03-02T02:44:46.691Z,6.37
2023-03-02T02:47:20.220Z,6.32
2023-03-02T02:49:51.968Z,6.45
2023-03-02T02:52:24.963Z,6.42
2023-03-02T02:54:58.553Z,6.18
2023-03-02T02:57:35.067Z,6.32
2023-03-02T03:00:06.951Z,6.50
2023-03-02T03:02:44.355Z,6.46
2023-03-02T03:05:18.065Z,6.32
2023-03-02T03:07:48.200Z,6.30
2023-03-02T03:10:21.661Z,6.43
2023-03-02T03:12:54.556Z,6.33
2023-03-02T03:15:25.985Z,6.36
2023-03-02T03:17:59.340Z,6.30
2023-03-02T03:20:30.624Z,6.39
2023-03-02T03:23:01.278Z,6.46
2023-03-02T03:25:35.508Z,6.23
2023-03-02T03:28:07.665Z,6.20
2023-03-02T03:30:38.304Z,6.21
2023-03-02T03:33:11.459Z,6.29
2023-03-02T03:35:41.463Z,6.16
2023-03-02T03:38:11.699Z,6.37
2023-03-02T03:40:43.173Z,6.18
2023-03-02T03:43:15.661Z,6.09
2023-03-02T03:45:45.918Z,6.16
2023-03-02T03:48:16.837Z,6.19
2023-03-02T03:50:47.310Z,6.35
2023-03-02T03:53:16.872Z,6.30
2023-03-02T03:55:46.581Z,6.49
2023-03-02T03:58:19.508Z,6.32
2023-03-02T04:00:49.610Z,6.42
2023-03-02T04:03:20.860Z,6.36
2023-03-02T04:05:57.632Z,6.38
2023-03-02T04:08:27.618Z,6.51
2023-03-02T04:10:57.613Z,6.42
2023-03-02T04:13:29.662Z,6.43
2023-03-02T04:16:00.127Z,6.39
2023-03-02T04:18:30.705Z,6.45
2023-03-02T04:21:01.838Z,6.37
2023-03-02T04:23:32.076Z,6.34
2023-03-02T04:26:05.434Z,6.40
2023-03-02T04:28:37.760Z,6.41
2023-03-02T04:31:09.026Z,6.46
2023-03-02T04:33:40.632Z,6.55
2023-03-02T04:36:11.570Z,6.55
2023-03-02T04:38:41.518Z,6.48
2023-03-02T04:41:11.799Z,6.53
2023-03-02T04:43:43.496Z,6.64
2023-03-02T04:46:17.291Z,6.52
2023-03-02T04:48:48.205Z,6.58
2023-03-02T04:51:24.380Z,6.40
2023-03-02T04:53:54.665Z,6.25
2023-03-02T04:56:25.311Z,6.44
2023-03-02T04:58:57.359Z,6.47
2023-03-02T05:01:27.879Z,6.60
2023-03-02T05:03:57.864Z,6.43
2023-03-02T05:06:28.069Z,6.43
2023-03-02T05:09:00.265Z,6.27
2023-03-02T05:11:30.457Z,6.38
2023-03-02T05:14:05.909Z,6.59
2023-03-02T05:16:38.111Z,6.77
2023-03-02T05:19:09.894Z,6.46
2023-03-02T05:21:40.411Z,6.43
2023-03-02T05:24:10.401Z,6.59
2023-03-02T05:26:40.937Z,6.39
2023-03-02T05:29:12.924Z,6.57
2023-03-02T05:31:45.007Z,6.17
2023-03-02T05:34:18.118Z,6.52
2023-03-02T05:36:48.019Z,6.38
2023-03-02T05:39:18.766Z,6.46
2023-03-02T05:41:48.889Z,6.56
2023-03-02T05:44:20.324Z,6.50
2023-03-02T05:46:51.704Z,6.19
2023-03-02T05:49:21.898Z,6.18
2023-03-02T05:51:52.024Z,6.11
2023-03-02T05:54:22.649Z,6.23
2023-03-02T05:56:52.575Z,6.60
2023-03-02T05:59:25.030Z,6.33
2023-03-02T06:01:59.229Z,6.41
2023-03-02T06:04:29.664Z,6.54
2023-03-02T06:06:59.833Z,6.67
2023-03-02T06:09:29.782Z,6.84
2023-03-02T06:12:00.016Z,6.68
2023-03-02T06:14:31.683Z,6.47
2023-03-02T06:17:01.672Z,6.25
2023-03-02T06:19:31.524Z,6.43
2023-03-02T06:22:01.455Z,6.50
2023-03-02T06:24:32.059Z,6.54
2023-03-02T06:27:02.509Z,6.31
2023-03-02T06:29:33.288Z,6.53
2023-03-02T06:32:03.860Z,6.58
2023-03-02T06:34:35.474Z,6.78
2023-03-02T06:37:06.190Z,6.76
2023-03-02T06:39:36.533Z,6.79
2023-03-02T06:42:06.911Z,6.78
2023-03-02T06:44:38.502Z,6.75
2023-03-02T06:47:08.643Z,6.75
2023-03-02T06:49:38.439Z,6.73
2023-03-02T06:52:08.920Z,6.85
2023-03-02T06:54:39.207Z,6.86
2023-03-02T06:57:09.324Z,6.64
2023-03-02T06:59:41.275Z,6.65
2023-03-02T07:02:12.634Z,6.88
2023-03-02T07:04:43.146Z,6.66
2023-03-02T07:07:15.249Z,6.54
2023-03-02T07:09:45.347Z,6.80
2023-03-02T07:12:15.901Z,6.78
2023-03-02T07:14:48.890Z,6.80
2023-03-02T07:17:19.410Z,6.68
2023-03-02T07:19:49.646Z,6.94
2023-03-02T07:22:20.693Z,6.95
2023-03-02T07:24:51.493Z,7.03
2023-03-02T07:27:22.464Z,7.13
2023-03-02T07:29:54.109Z,7.14
2023-03-02T07:32:24.931Z,7.08
2023-03-02T07:34:55.683Z,6.86
2023-03-02T07:37:26.245Z,6.76
2023-03-02T07:39:56.188Z,6.83
2023-03-02T07:42:26.596Z,6.81
2023-03-02T07:44:58.072Z,6.78
2023-03-02T07:47:27.980Z,7.13
2023-03-02T07:49:57.864Z,7.11
2023-03-02T07:52:27.811Z,6.93
2023-03-02T07:54:57.603Z,6.73
2023-03-02T07:57:28.047Z,7.09
2023-03-02T07:59:59.881Z,6.91
2023-03-02T08:02:31.128Z,7.14
2023-03-02T08:05:01.427Z,7.02
2023-03-02T08:07:31.802Z,6.75
2023-03-02T08:10:02.889Z,6.78
2023-03-02T08:12:32.593Z,6.31
2023-03-02T08:15:05.230Z,6.54
2023-03-02T08:17:35.166Z,6.48
2023-03-02T08:20:06.752Z,6.47
2023-03-02T08:22:37.244Z,6.25
2023-03-02T08:25:09.138Z,6.52
2023-03-02T08:27:40.829Z,6.66
2023-03-02T08:30:14.381Z,6.43
2023-03-02T08:32:44.776Z,6.55
2023-03-02T08:35:14.896Z,6.39
2023-03-02T08:37:45.298Z,6.78
2023-03-02T08:40:15.987Z,6.66
2023-03-02T08:42:46.072Z,6.53
2023-03-02T08:45:21.112Z,6.27
2023-03-02T08:47:51.005Z,6.45
2023-03-02T08:50:21.657Z,6.90
2023-03-02T08:52:51.801Z,6.83
2023-03-02T08:55:21.586Z,6.65
2023-03-02T08:57:52.212Z,6.13
2023-03-02T09:00:25.181Z,6.26
2023-03-02T09:02:55.960Z,6.59
2023-03-02T09:05:25.901Z,6.83
2023-03-02T09:07:55.792Z,6.94
2023-03-02T09:10:25.307Z,6.77
2023-03-02T09:12:55.845Z,7.03
2023-03-02T09:15:27.128Z,7.24
2023-03-02T09:17:57.176Z,6.71
2023-03-02T09:20:27.834Z,7.15
2023-03-02T09:22:58.032Z,6.95
2023-03-02T09:25:28.344Z,7.18
2023-03-02T09:27:58.532Z,7.14
2023-03-02T09:30:32.191Z,7.05
2023-03-02T09:33:02.881Z,7.01
2023-03-02T09:35:32.970Z,7.01
2023-03-02T09:38:03.465Z,6.94
2023-03-02T09:40:40.198Z,7.19
2023-03-02T09:43:19.942Z,7.27
2023-03-02T09:45:59.990Z,7.39
2023-03-02T09:48:41.754Z,7.40
2023-03-02T09:51:25.940Z,7.31
2023-03-02T09:54:06.126Z,7.36
2023-03-02T09:56:38.420Z,7.37
2023-03-02T09:59:15.455Z,7.57
2023-03-02T10:01:49.723Z,7.76
2023-03-02T10:04:25.809Z,7.56
2023-03-02T10:06:59.807Z,7.25
2023-03-02T10:09:31.055Z,7.47
2023-03-02T10:12:16.505Z,7.55
2023-03-02T10:14:51.187Z,7.45
2023-03-02T10:17:41.738Z,7.67
2023-03-02T10:20:16.301Z,7.60
2023-03-02T10:22:50.112Z,7.54
2023-03-02T10:25:28.280Z,7.80
2023-03-02T10:28:03.080Z,7.69
2023-03-02T10:30:35.709Z,7.90
2023-03-02T10:33:14.201Z,7.98
2023-03-02T10:35:50.293Z,8.09
2023-03-02T10:38:23.068Z,7.87
2023-03-02T10:41:00.364Z,7.94
2023-03-02T10:43:40.212Z,7.81
2023-03-02T10:46:13.060Z,7.70
2023-03-02T10:48:51.597Z,7.91
2023-03-02T10:51:27.427Z,7.88
2023-03-02T10:54:18.242Z,7.76
2023-03-02T10:56:52.638Z,7.93
2023-03-02T10:59:39.929Z,8.02
2023-03-02T11:02:23.679Z,8.15
2023-03-02T11:04:58.908Z,7.97
2023-03-02T11:07:30.646Z,7.93
2023-03-02T11:10:03.747Z,8.28
2023-03-02T11:12:37.505Z,8.23
2023-03-02T11:15:27.420Z,8.11
2023-03-02T11:18:04.355Z,7.88
2023-03-02T11:20:39.856Z,7.93
2023-03-02T11:23:20.671Z,8.14
2023-03-02T11:25:55.524Z,8.18
2023-03-02T11:28:41.846Z,8.26
2023-03-02T11:31:18.456Z,8.15
2023-03-02T11:34:11.551Z,8.15
2023-03-02T11:37:07.668Z,8.35
2023-03-02T11:39:55.720Z,8.50
2023-03-02T11:42:30.995Z,8.37
2023-03-02T11:45:04.988Z,8.22
2023-03-02T11:47:36.812Z,8.37
2023-03-02T11:50:08.628Z,8.40
2023-03-02T11:52:44.310Z,8.29
2023-03-02T11:55:19.924Z,7.95
2023-03-02T11:57:53.080Z,8.21
2023-03-02T12:00:35.625Z,8.56
2023-03-02T12:03:07.995Z,8.57
2023-03-02T12:05:40.656Z,8.48
2023-03-02T12:08:34.928Z,8.47
2023-03-02T12:11:08.964Z,8.30
2023-03-02T12:13:41.010Z,8.22
2023-03-02T12:16:22.894Z,8.35
2023-03-02T12:18:53.553Z,8.47
2023-03-02T12:21:24.915Z,8.58
2023-03-02T12:24:06.606Z,8.66
2023-03-02T12:26:40.145Z,8.69
2023-03-02T12:29:25.324Z,8.63
2023-03-02T12:31:58.055Z,8.61
2023-03-02T12:34:34.430Z,8.70
2023-03-02T12:37:14.629Z,8.60
2023-03-02T12:40:18.972Z,8.64
2023-03-02T12:43:16.549Z,8.57
2023-03-02T12:45:57.840Z,8.93
2023-03-02T12:48:33.126Z,8.61
2023-03-02T12:51:06.150Z,8.40
2023-03-02T12:53:40.125Z,8.36
2023-03-02T12:56:11.641Z,8.48
2023-03-02T12:58:52.571Z,8.30
2023-03-02T13:01:27.129Z,8.45
2023-03-02T13:03:58.184Z,8.49
2023-03-02T13:06:32.696Z,8.60
2023-03-02T13:09:03.657Z,8.45
2023-03-02T13:11:36.106Z,8.64
2023-03-02T13:14:23.958Z,8.72
2023-03-02T13:17:00.437Z,8.68
2023-03-02T13:19:32.231Z,8.68
2023-03-02T13:22:02.360Z,9.06
2023-03-02T13:24:38.078Z,8.88
2023-03-02T13:27:10.017Z,8.99
2023-03-02T13:29:42.394Z,8.63
2023-03-02T13:32:25.148Z,8.84
2023-03-02T13:34:56.475Z,8.68
2023-03-02T13:37:40.753Z,9.00
2023-03-02T13:40:35.986Z,8.70
2023-03-02T13:43:09.170Z,8.86
2023-03-02T13:45:42.008Z,8.85
2023-03-02T13:48:17.416Z,8.68
2023-03-02T13:50:55.630Z,8.90
2023-03-02T13:53:26.936Z,8.89
2023-03-02T13:55:57.740Z,9.10
2023-03-02T13:58:28.622Z,9.00
2023-03-02T14:01:00.881Z,8.86
2023-03-02T14:03:33.119Z,8.76
2023-03-02T14:06:04.074Z,8.86
2023-03-02T14:08:34.370Z,9.00
2023-03-02T14:11:05.480Z,9.13
2023-03-02T14:13:40.209Z,9.30
2023-03-02T14:16:13.885Z,9.17
2023-03-02T14:18:47.472Z,9.19
2023-03-02T14:21:19.902Z,9.09
2023-03-02T14:23:50.581Z,9.01
2023-03-02T14:26:32.164Z,8.95
2023-03-02T14:29:06.277Z,8.97
2023-03-02T14:31:38.485Z,8.98
2023-03-02T14:34:10.407Z,8.95
2023-03-02T14:36:41.279Z,9.22
2023-03-02T14:39:22.992Z,9.21
2023-03-02T14:41:55.736Z,9.01
2023-03-02T14:44:26.754Z,9.19
2023-03-02T14:46:58.810Z,8.86
2023-03-02T14:49:30.949Z,9.13
2023-03-02T14:52:04.481Z,9.30
2023-03-02T14:54:39.354Z,9.23
2023-03-02T14:57:18.802Z,9.27
2023-03-02T14:59:49.475Z,9.26
2023-03-02T15:02:26.109Z,9.32
2023-03-02T15:05:02.012Z,9.22
2023-03-02T15:07:33.152Z,9.15
2023-03-02T15:10:03.842Z,8.65
2023-03-02T15:12:34.665Z,8.88
2023-03-02T15:15:06.400Z,9.13
2023-03-02T15:17:39.132Z,9.19
2023-03-02T15:20:13.870Z,9.10
2023-03-02T15:22:46.842Z,9.02
2023-03-02T15:25:18.236Z,9.10
2023-03-02T15:27:49.872Z,9.22
2023-03-02T15:30:21.522Z,9.01
2023-03-02T15:32:54.971Z,9.10
2023-03-02T15:35:29.750Z,8.93
2023-03-02T15:38:02.746Z,8.81
2023-03-02T15:40:34.250Z,8.91
2023-03-02T15:43:04.901Z,9.11
2023-03-02T15:45:35.726Z,9.04
2023-03-02T15:48:12.601Z,9.13
2023-03-02T15:50:43.664Z,9.06
2023-03-02T15:53:16.235Z,9.01
2023-03-02T15:55:46.623Z,8.96
2023-03-02T15:58:18.949Z,9.07
2023-03-02T16:00:52.872Z,9.12
2023-03-02T16:03:25.816Z,9.02
2023-03-02T16:06:00.941Z,8.99
2023-03-02T16:08:32.004Z,9.12
2023-03-02T16:11:04.444Z,9.05
2023-03-02T16:13:35.237Z,8.75
2023-03-02T16:16:06.954Z,9.07
2023-03-02T16:18:40.132Z,9.09
2023-03-02T16:21:15.310Z,9.11
2023-03-02T16:23:47.181Z,9.08
2023-03-02T16:26:20.621Z,8.96
2023-03-02T16:28:51.633Z,8.92
2023-03-02T16:31:26.584Z,8.95
2023-03-02T16:33:59.592Z,9.00
2023-03-02T16:36:29.494Z,8.99
2023-03-02T16:39:00.303Z,8.87
2023-03-02T16:41:31.334Z,8.74
2023-03-02T16:44:02.775Z,8.95
2023-03-02T16:46:36.470Z,8.99
2023-03-02T16:49:08.923Z,9.04
2023-03-02T16:51:40.293Z,8.92
2023-03-02T16:54:10.938Z,8.90
2023-03-02T16:56:45.379Z,8.93
2023-03-02T16:59:16.004Z,8.86
2023-03-02T17:01:46.166Z,8.77
2023-03-02T17:04:18.923Z,8.81
2023-03-02T17:07:03.889Z,8.98
2023-03-02T17:09:36.285Z,8.68
2023-03-02T17:12:08.338Z,8.78
2023-03-02T17:14:42.217Z,8.90
2023-03-02T17:17:12.690Z,8.72
2023-03-02T17:19:44.687Z,8.70
2023-03-02T17:22:15.115Z,8.69
2023-03-02T17:24:45.570Z,8.79
2023-03-02T17:27:24.863Z,8.65
2023-03-02T17:29:56.691Z,8.65
2023-03-02T17:32:27.414Z,8.56
2023-03-02T17:34:58.923Z,8.76
2023-03-02T17:37:30.583Z,8.65
2023-03-02T17:40:01.277Z,8.68
2023-03-02T17:42:31.478Z,8.67
2023-03-02T17:45:02.461Z,8.59
2023-03-02T17:47:33.663Z,8.72
2023-03-02T17:50:13.260Z,8.52
2023-03-02T17:52:44.368Z,8.73
2023-03-02T17:55:16.538Z,8.80
2023-03-02T17:57:47.169Z,8.69
2023-03-02T18:00:21.382Z,8.58
2023-03-02T18:02:51.902Z,8.62
2023-03-02T18:05:24.293Z,8.59
2023-03-02T18:07:54.854Z,8.53
2023-03-02T18:10:24.865Z,8.49
2023-03-02T18:12:57.288Z,8.63
2023-03-02T18:15:30.074Z,8.50
2023-03-02T18:18:01.301Z,8.56
2023-03-02T18:20:33.604Z,8.68
2023-03-02T18:23:03.803Z,8.75
2023-03-02T18:25:34.547Z,8.51
2023-03-02T18:28:04.400Z,8.51
2023-03-02T18:30:35.657Z,8.52
2023-03-02T18:33:06.078Z,8.50
2023-03-02T18:35:39.366Z,8.63
2023-03-02T18:38:09.728Z,8.55
2023-03-02T18:40:40.107Z,8.51
2023-03-02T18:43:10.645Z,8.55
2023-03-02T18:45:41.150Z,8.57
2023-03-02T18:48:11.066Z,8.39
2023-03-02T18:50:42.717Z,8.56
2023-03-02T18:53:13.086Z,8.46
2023-03-02T18:55:43.543Z,8.55
2023-03-02T18:58:20.196Z,8.65
2023-03-02T19:00:51.111Z,8.56
2023-03-02T19:03:23.068Z,8.31
2023-03-02T19:05:57.893Z,8.47
2023-03-02T19:08:30.591Z,8.24
2023-03-02T19:11:01.110Z,8.17
2023-03-02T19:13:31.679Z,8.27
2023-03-02T19:16:02.938Z,8.37
2023-03-02T19:18:34.696Z,8.34
2023-03-02T19:21:08.351Z,8.40
2023-03-02T19:23:39.036Z,8.32
2023-03-02T19:26:11.052Z,7.95
2023-03-02T19:28:41.488Z,8.24
2023-03-02T19:31:13.954Z,8.49
2023-03-02T19:33:45.502Z,8.24
2023-03-02T19:36:17.020Z,8.28
2023-03-02T19:38:47.246Z,8.13
2023-03-02T19:41:20.221Z,8.27
2023-03-02T19:43:50.930Z,8.23
2023-03-02T19:46:21.171Z,8.16
2023-03-02T19:48:50.943Z,8.09
2023-03-02T19:51:22.393Z,8.10
2023-03-02T19:53:54.016Z,8.18
2023-03-02T19:56:27.671Z,8.18
2023-03-02T19:58:58.213Z,7.81
2023-03-02T20:01:32.320Z,7.95
2023-03-02T20:04:03.195Z,7.79
2023-03-02T20:06:37.251Z,7.95
2023-03-02T20:09:08.752Z,7.90
2023-03-02T20:11:39.577Z,8.07
2023-03-02T20:14:12.030Z,7.85
2023-03-02T20:16:42.272Z,7.87
2023-03-02T20:19:14.349Z,7.93
2023-03-02T20:21:46.708Z,7.92
2023-03-02T20:24:17.321Z,8.14
2023-03-02T20:26:47.852Z,8.14
2023-03-02T20:29:18.499Z,8.30
2023-03-02T20:31:49.554Z,8.13
2023-03-02T20:34:20.110Z,8.10
2023-03-02T20:36:52.162Z,8.21
2023-03-02T20:39:26.061Z,8.23
2023-03-02T20:41:56.918Z,7.93
2023-03-02T20:44:31.220Z,7.99
2023-03-02T20:47:05.000Z,8.16
2023-03-02T20:49:38.278Z,8.02
2023-03-02T20:52:10.897Z,8.06
2023-03-02T20:54:43.437Z,8.13
2023-03-02T20:57:16.977Z,7.97
2023-03-02T20:59:47.606Z,8.11
2023-03-02T21:02:18.680Z,8.05
2023-03-02T21:04:50.607Z,8.00
2023-03-02T21:07:22.141Z,7.97
2023-03-02T21:09:53.113Z,7.99
2023-03-02T21:12:24.006Z,8.03
2023-03-02T21:14:54.394Z,7.94
2023-03-02T21:17:25.185Z,7.85
2023-03-02T21:19:56.292Z,7.73
2023-03-02T21:22:28.591Z,7.87
2023-03-02T21:24:59.920Z,7.73
2023-03-02T21:27:31.011Z,7.66
2023-03-02T21:30:06.834Z,7.84
2023-03-02T21:32:38.392Z,7.72
2023-03-02T21:35:10.539Z,8.01
2023-03-02T21:37:42.536Z,8.02
2023-03-02T21:40:17.641Z,7.95
2023-03-02T21:42:48.007Z,7.98
2023-03-02T21:45:21.392Z,7.96
2023-03-02T21:47:53.472Z,8.06
2023-03-02T21:50:27.486Z,8.06
2023-03-02T21:52:59.613Z,7.98
2023-03-02T21:55:31.288Z,7.94
2023-03-02T21:58:02.265Z,7.98
2023-03-02T22:00:35.081Z,8.03
2023-03-02T22:03:05.777Z,8.07
2023-03-02T22:05:36.598Z,8.04
2023-03-02T22:08:08.652Z,7.89
2023-03-02T22:10:43.835Z,7.89
2023-03-02T22:13:21.527Z,7.86
2023-03-02T22:15:53.268Z,7.78
2023-03-02T22:18:26.489Z,7.84
2023-03-02T22:20:56.640Z,7.74
2023-03-02T22:23:28.666Z,7.71
2023-03-02T22:26:18.991Z,7.73
2023-03-02T22:28:49.399Z,7.71
2023-03-02T22:31:22.637Z,7.69
2023-03-02T22:33:52.616Z,7.78
2023-03-02T22:36:26.172Z,7.78
2023-03-02T22:39:14.310Z,7.71
2023-03-02T22:41:44.375Z,7.62
2023-03-02T22:44:15.471Z,7.75
2023-03-02T22:46:45.935Z,7.81
2023-03-02T22:49:19.162Z,7.83
2023-03-02T22:51:49.026Z,7.72
2023-03-02T22:54:25.531Z,7.77
2023-03-02T22:56:57.217Z,7.76
2023-03-02T22:59:28.059Z,7.77
2023-03-02T23:02:02.009Z,7.86
2023-03-02T23:04:37.364Z,7.88
2023-03-02T23:07:15.803Z,7.77
2023-03-02T23:09:47.764Z,7.81
2023-03-02T23:12:21.936Z,7.73
2023-03-02T23:14:54.142Z,7.71
2023-03-02T23:17:29.572Z,7.73
2023-03-02T23:20:00.239Z,7.60
2023-03-02T23:22:32.040Z,7.36
2023-03-02T23:25:04.434Z,7.51
2023-03-02T23:27:35.176Z,7.25
2023-03-02T23:30:06.311Z,7.44
2023-03-02T23:32:36.831Z,7.51
2023-03-02T23:35:07.161Z,7.54
2023-03-02T23:37:37.693Z,7.37
2023-03-02T23:40:12.891Z,7.45
2023-03-02T23:42:42.802Z,7.51
2023-03-02T23:45:14.024Z,7.43
2023-03-02T23:47:44.913Z,7.48
2023-03-02T23:50:16.116Z,7.57
2023-03-02T23:52:45.981Z,7.48
2023-03-02T23:55:17.462Z,7.58
2023-03-02T23:57:47.721Z,7.40
